createdAt,value
2023-04-09T00:01:37.005Z,9.82
2023-04-09T00:04:04.188Z,10.20
2023-04-09T00:06:31.242Z,11.07
2023-04-09T00:08:58.132Z,11.05
2023-04-09T00:11:25.076Z,11.57
2023-04-09T00:13:51.911Z,10.43
2023-04-09T00:16:18.904Z,10.88
2023-04-09T00:18:46.381Z,10.32
2023-04-09T00:21:13.286Z,9.80
2023-04-09T00:23:40.541Z,9.45
2023-04-09T00:26:07.436Z,9.98
2023-04-09T00:28:34.857Z,9.95
2023-04-09T00:31:03.152Z,9.98
2023-04-09T00:33:29.993Z,9.98
2023-04-09T00:35:57.012Z,9.13
2023-04-09T00:38:24.151Z,9.32
2023-04-09T00:40:51.574Z,10.07
2023-04-09T00:43:18.577Z,9.10
2023-04-09T00:45:46.053Z,8.93
2023-04-09T00:48:13.788Z,8.60
2023-04-09T00:50:41.965Z,8.65
2023-04-09T00:53:10.416Z,9.10
2023-04-09T00:55:40.010Z,8.15
2023-04-09T00:58:07.166Z,8.93
2023-04-09T01:00:34.067Z,8.45
2023-04-09T01:03:01.937Z,8.43
2023-04-09T01:05:36.749Z,7.85
2023-04-09T01:08:09.580Z,8.60
2023-04-09T01:10:52.504Z,9.05
2023-04-09T01:13:31.915Z,8.40
2023-04-09T01:16:01.838Z,9.07
2023-04-09T01:18:31.776Z,8.60
2023-04-09T01:21:05.082Z,8.35
2023-04-09T01:23:38.287Z,8.52
2023-04-09T01:26:37.317Z,9.13
2023-04-09T01:29:05.913Z,8.60
2023-04-09T01:31:36.762Z,8.30
2023-04-09T01:34:05.250Z,9.02
2023-04-09T01:36:33.616Z,8.77
2023-04-09T01:39:02.232Z,8.38
2023-04-09T01:41:32.419Z,8.85
2023-04-09T01:44:01.942Z,9.20
2023-04-09T01:46:29.799Z,8.68
2023-04-09T01:48:57.467Z,8.73
2023-04-09T01:51:24.878Z,8.48
2023-04-09T01:53:52.047Z,8.38
2023-04-09T01:56:19.012Z,8.73
2023-04-09T01:58:46.119Z,9.23
2023-04-09T02:01:20.909Z,8.23
2023-04-09T02:03:55.683Z,8.68
2023-04-09T02:06:36.365Z,8.23
2023-04-09T02:09:07.485Z,8.15
2023-04-09T02:11:38.125Z,9.18
2023-04-09T02:14:08.593Z,8.70
2023-04-09T02:16:36.897Z,8.80
2023-04-09T02:19:03.752Z,8.50
2023-04-09T02:21:31.778Z,9.52
2023-04-09T02:23:58.692Z,8.50
2023-04-09T02:26:25.966Z,9.45
2023-04-09T02:28:53.014Z,9.20
2023-04-09T02:31:20.169Z,10.15
2023-04-09T02:33:47.208Z,9.35
2023-04-09T02:36:14.255Z,9.30
2023-04-09T02:38:42.426Z,10.00
2023-04-09T02:41:09.966Z,10.82
2023-04-09T02:43:37.062Z,9.85
2023-04-09T02:46:04.068Z,10.43
2023-04-09T02:48:31.262Z,11.85
2023-04-09T02:50:58.290Z,11.35
2023-04-09T02:53:25.893Z,10.30
2023-04-09T02:55:52.769Z,9.73
2023-04-09T02:58:19.777Z,11.73
2023-04-09T03:00:46.601Z,10.02
2023-04-09T03:03:13.654Z,9.68
2023-04-09T03:05:40.740Z,10.75
2023-04-09T03:08:07.795Z,11.63
2023-04-09T03:10:34.683Z,11.90
2023-04-09T03:13:01.523Z,12.30
2023-04-09T03:15:28.388Z,12.63
2023-04-09T03:17:55.537Z,11.80
2023-04-09T03:20:22.461Z,12.05
2023-04-09T03:22:49.365Z,12.77
2023-04-09T03:25:28.010Z,11.93
2023-04-09T03:27:55.496Z,11.35
2023-04-09T03:30:38.990Z,11.95
2023-04-09T03:33:06.794Z,12.07
2023-04-09T03:35:39.403Z,10.60
2023-04-09T03:38:06.462Z,11.85
2023-04-09T03:40:33.476Z,13.20
2023-04-09T03:43:00.301Z,11.70
2023-04-09T03:45:27.259Z,12.00
2023-04-09T03:48:01.333Z,12.68
2023-04-09T03:50:28.273Z,12.65
2023-04-09T03:52:56.355Z,12.73
2023-04-09T03:55:23.333Z,14.00
2023-04-09T03:57:51.427Z,12.55
2023-04-09T04:00:21.192Z,13.00
2023-04-09T04:02:52.197Z,12.93
2023-04-09T04:05:37.065Z,12.38
2023-04-09T04:08:08.416Z,13.52
2023-04-09T04:10:35.331Z,12.13
2023-04-09T04:13:02.447Z,12.55
2023-04-09T04:15:43.050Z,12.50
2023-04-09T04:18:12.119Z,13.18
2023-04-09T04:20:45.204Z,12.45
2023-04-09T04:23:14.290Z,12.83
2023-04-09T04:25:53.374Z,12.50
2023-04-09T04:28:27.306Z,11.82
2023-04-09T04:30:54.806Z,12.25
2023-04-09T04:33:21.741Z,12.13
2023-04-09T04:35:54.274Z,12.95
2023-04-09T04:38:47.431Z,12.25
2023-04-09T04:41:24.415Z,12.55
2023-04-09T04:43:58.180Z,11.73
2023-04-09T04:46:26.003Z,12.48
2023-04-09T04:48:53.253Z,12.07
2023-04-09T04:51:21.999Z,12.85
2023-04-09T04:54:01.185Z,12.20
2023-04-09T04:56:28.816Z,11.82
2023-04-09T04:59:07.685Z,12.60
2023-04-09T05:01:47.143Z,12.02
2023-04-09T05:04:13.973Z,11.73
2023-04-09T05:06:41.073Z,11.52
2023-04-09T05:09:12.416Z,10.88
2023-04-09T05:11:53.789Z,12.15
2023-04-09T05:14:22.465Z,11.50
2023-04-09T05:16:49.344Z,11.68
2023-04-09T05:19:18.283Z,10.85
2023-04-09T05:21:47.274Z,10.70
2023-04-09T05:24:20.555Z,11.50
2023-04-09T05:26:47.416Z,11.05
2023-04-09T05:29:14.477Z,10.88
2023-04-09T05:31:42.984Z,11.90
2023-04-09T05:34:22.684Z,11.50
2023-04-09T05:36:53.577Z,11.45
2023-04-09T05:39:22.622Z,11.57
2023-04-09T05:41:49.813Z,11.25
2023-04-09T05:44:48.867Z,10.85
2023-04-09T05:47:19.546Z,11.10
2023-04-09T05:49:59.129Z,11.15
2023-04-09T05:52:26.843Z,11.43
2023-04-09T05:54:53.669Z,10.85
2023-04-09T05:57:26.619Z,10.73
2023-04-09T05:59:58.696Z,10.23
2023-04-09T06:02:26.683Z,10.57
2023-04-09T06:04:54.392Z,11.32
2023-04-09T06:07:21.419Z,10.45
2023-04-09T06:09:48.388Z,10.32
2023-04-09T06:12:15.818Z,9.90
2023-04-09T06:14:42.805Z,9.93
2023-04-09T06:17:09.664Z,9.38
2023-04-09T06:19:36.593Z,10.63
2023-04-09T06:22:03.438Z,9.90
2023-04-09T06:24:34.819Z,10.20
2023-04-09T06:27:01.635Z,8.25
2023-04-09T06:29:28.574Z,8.93
2023-04-09T06:31:55.472Z,8.32
2023-04-09T06:34:22.393Z,8.43
2023-04-09T06:36:49.246Z,8.50
2023-04-09T06:39:16.059Z,8.45
2023-04-09T06:41:42.897Z,8.70
2023-04-09T06:44:22.006Z,8.82
2023-04-09T06:46:49.270Z,7.85
2023-04-09T06:49:16.247Z,8.52
2023-04-09T06:51:43.079Z,8.63
2023-04-09T06:54:09.925Z,8.38
2023-04-09T06:56:36.739Z,7.30
2023-04-09T06:59:03.839Z,7.78
2023-04-09T07:01:31.544Z,7.55
2023-04-09T07:03:58.474Z,7.35
2023-04-09T07:06:25.378Z,7.15
2023-04-09T07:08:52.494Z,6.18
2023-04-09T07:11:19.501Z,6.97
2023-04-09T07:13:46.394Z,6.53
2023-04-09T07:16:13.299Z,7.45
2023-04-09T07:18:40.188Z,7.20
2023-04-09T07:21:07.056Z,7.28
2023-04-09T07:23:37.337Z,6.60
2023-04-09T07:26:05.480Z,6.57
2023-04-09T07:28:32.760Z,7.07
2023-04-09T07:31:02.907Z,7.07
2023-04-09T07:33:30.480Z,6.55
2023-04-09T07:35:57.753Z,6.03
2023-04-09T07:38:25.023Z,6.10
2023-04-09T07:40:51.991Z,5.95
2023-04-09T07:47:24.890Z,5.93
2023-04-09T07:49:52.070Z,5.45
2023-04-09T07:52:20.199Z,5.07
2023-04-09T07:54:47.091Z,5.72
2023-04-09T07:57:14.009Z,5.45
2023-04-09T07:59:41.117Z,4.80
2023-04-09T08:02:08.606Z,5.32
2023-04-09T08:04:35.726Z,4.45
2023-04-09T08:07:02.637Z,4.47
2023-04-09T08:09:29.500Z,5.00
2023-04-09T08:11:57.291Z,4.80
2023-04-09T08:14:24.159Z,4.38
2023-04-09T08:16:51.665Z,4.80
2023-04-09T08:19:20.126Z,3.90
2023-04-09T08:21:49.512Z,4.40
2023-04-09T08:24:17.226Z,4.15
2023-04-09T08:26:44.781Z,3.90
2023-04-09T08:29:13.587Z,3.92
2023-04-09T08:31:41.415Z,4.10
2023-04-09T08:34:08.433Z,4.25
2023-04-09T08:36:35.778Z,4.57
2023-04-09T08:39:03.435Z,4.20
2023-04-09T08:41:30.702Z,4.50
2023-04-09T08:43:59.736Z,3.85
2023-04-09T08:46:27.618Z,4.50
2023-04-09T08:48:55.219Z,4.40
2023-04-09T08:51:24.025Z,4.07
2023-04-09T08:54:03.677Z,4.15
2023-04-09T08:56:31.166Z,4.63
2023-04-09T08:58:58.575Z,3.72
2023-04-09T09:01:30.615Z,3.90
2023-04-09T09:04:08.638Z,3.00
2023-04-09T09:06:40.951Z,3.92
2023-04-09T09:09:18.961Z,3.97
2023-04-09T09:11:48.319Z,3.78
2023-04-09T09:14:19.002Z,3.75
2023-04-09T09:17:08.171Z,3.33
2023-04-09T09:19:35.842Z,3.92
2023-04-09T09:22:05.010Z,3.50
2023-04-09T09:24:33.938Z,3.63
2023-04-09T09:27:01.449Z,3.30
2023-04-09T09:29:28.631Z,3.58
2023-04-09T09:31:56.477Z,3.08
2023-04-09T09:34:24.951Z,3.65
2023-04-09T09:36:51.941Z,3.28
2023-04-09T09:39:18.936Z,3.67
2023-04-09T09:41:47.348Z,3.28
2023-04-09T09:44:31.933Z,3.22
2023-04-09T09:46:59.387Z,3.35
2023-04-09T09:49:26.305Z,2.95
2023-04-09T09:51:55.643Z,2.97
2023-04-09T09:54:25.472Z,3.30
2023-04-09T09:59:31.828Z,2.75
2023-04-09T10:02:04.394Z,3.35
2023-04-09T10:04:36.250Z,2.95
2023-04-09T10:07:05.828Z,3.28
2023-04-09T10:12:54.869Z,2.90
2023-04-09T10:15:22.620Z,3.08
2023-04-09T10:17:49.910Z,3.28
2023-04-09T10:20:41.239Z,3.08
2023-04-09T10:23:24.272Z,2.92
2023-04-09T10:25:51.673Z,3.25
2023-04-09T10:28:19.045Z,3.38
2023-04-09T10:30:46.381Z,3.08
2023-04-09T10:33:22.094Z,3.33
2023-04-09T10:35:49.287Z,2.75
2023-04-09T10:38:16.225Z,2.85
2023-04-09T10:40:49.831Z,3.30
2023-04-09T10:43:20.120Z,2.75
2023-04-09T10:45:56.197Z,2.92
2023-04-09T10:48:26.133Z,2.65
2023-04-09T10:53:27.665Z,3.17
2023-04-09T10:55:56.298Z,3.80
2023-04-09T10:58:23.320Z,3.53
2023-04-09T11:00:51.481Z,3.25
2023-04-09T11:03:27.652Z,3.55
2023-04-09T11:06:02.200Z,3.35
2023-04-09T11:08:31.331Z,3.25
2023-04-09T11:10:59.453Z,3.70
2023-04-09T11:13:26.655Z,3.90
2023-04-09T11:15:54.942Z,3.50
2023-04-09T11:18:25.109Z,3.88
2023-04-09T11:21:00.462Z,3.97
2023-04-09T11:23:28.315Z,4.13
2023-04-09T11:25:56.109Z,3.95
2023-04-09T11:28:24.538Z,3.90
2023-04-09T11:30:52.327Z,4.03
2023-04-09T11:33:20.486Z,3.95
2023-04-09T11:35:48.364Z,4.30
2023-04-09T11:38:15.368Z,4.40
2023-04-09T11:40:51.490Z,3.83
2023-04-09T11:43:20.877Z,3.83
2023-04-09T11:45:48.670Z,3.92
2023-04-09T11:48:18.488Z,4.05
2023-04-09T11:50:47.346Z,3.80
2023-04-09T11:53:21.529Z,3.97
2023-04-09T11:55:51.879Z,3.85
2023-04-09T11:58:22.255Z,3.80
2023-04-09T12:00:49.187Z,3.47
2023-04-09T12:03:18.201Z,3.53
2023-04-09T12:05:50.826Z,3.17
2023-04-09T12:08:24.967Z,3.08
2023-04-09T12:10:53.799Z,3.30
2023-04-09T12:13:21.621Z,3.47
2023-04-09T12:15:50.019Z,3.17
2023-04-09T12:18:17.270Z,3.70
2023-04-09T12:20:47.369Z,3.13
2023-04-09T12:23:14.582Z,3.20
2023-04-09T12:25:44.240Z,3.22
2023-04-09T12:28:18.735Z,3.33
2023-04-09T12:30:46.464Z,3.00
2023-04-09T12:33:13.548Z,2.80
2023-04-09T12:35:41.114Z,3.38
2023-04-09T12:38:09.211Z,2.90
2023-04-09T12:40:37.026Z,3.00
2023-04-09T12:43:04.349Z,2.63
2023-04-09T12:45:37.908Z,2.95
2023-04-09T12:48:05.143Z,3.05
2023-04-09T12:50:33.278Z,2.90
2023-04-09T12:53:00.400Z,2.97
2023-04-09T12:55:27.976Z,2.75
2023-04-09T12:57:55.398Z,2.60
2023-04-09T13:00:22.373Z,2.63
2023-04-09T13:02:51.634Z,2.40
2023-04-09T13:05:19.200Z,2.38
2023-04-09T13:07:46.784Z,2.53
2023-04-09T13:10:13.815Z,2.25
2023-04-09T13:12:41.652Z,2.55
2023-04-09T13:15:08.827Z,2.30
2023-04-09T13:17:35.782Z,2.58
2023-04-09T13:20:03.709Z,2.40
2023-04-09T13:22:31.036Z,2.38
2023-04-09T13:24:57.986Z,2.20
2023-04-09T13:27:24.977Z,2.45
2023-04-09T13:29:52.010Z,2.25
2023-04-09T13:32:21.082Z,2.38
2023-04-09T13:34:48.117Z,2.20
2023-04-09T13:37:15.662Z,2.45
2023-04-09T13:39:43.839Z,2.45
2023-04-09T13:42:14.042Z,2.40
2023-04-09T13:44:44.669Z,2.40
2023-04-09T13:47:13.719Z,2.30
2023-04-09T13:49:41.467Z,2.10
2023-04-09T13:52:08.992Z,2.55
2023-04-09T13:54:36.195Z,2.22
2023-04-09T13:57:04.011Z,2.30
2023-04-09T13:59:31.070Z,2.10
2023-04-09T14:01:58.154Z,2.33
2023-04-09T14:04:25.349Z,2.30
2023-04-09T14:06:52.461Z,2.30
2023-04-09T14:09:19.414Z,2.40
2023-04-09T14:11:46.342Z,2.60
2023-04-09T14:14:13.245Z,2.50
2023-04-09T14:16:40.600Z,2.10
2023-04-09T14:19:07.932Z,2.47
2023-04-09T14:21:34.929Z,2.47
2023-04-09T14:24:02.039Z,2.47
2023-04-09T14:26:29.292Z,2.70
2023-04-09T14:28:56.431Z,2.47
2023-04-09T14:31:23.464Z,2.58
2023-04-09T14:33:50.723Z,2.60
2023-04-09T14:36:18.019Z,2.70
2023-04-09T14:38:45.022Z,2.58
2023-04-09T14:41:12.218Z,2.30
2023-04-09T14:43:39.664Z,2.50
2023-04-09T14:46:07.177Z,2.90
2023-04-09T14:48:34.298Z,2.70
2023-04-09T14:51:01.278Z,2.53
2023-04-09T14:53:28.268Z,2.72
2023-04-09T14:55:55.334Z,2.80
2023-04-09T14:58:22.276Z,2.63
2023-04-09T15:00:50.325Z,2.50
2023-04-09T15:03:17.702Z,3.13
2023-04-09T15:05:44.854Z,3.08
2023-04-09T15:08:12.932Z,2.53
2023-04-09T15:10:39.860Z,3.38
2023-04-09T15:13:07.035Z,2.90
2023-04-09T15:15:34.123Z,2.65
2023-04-09T15:18:05.692Z,2.40
2023-04-09T15:20:38.315Z,2.33
2023-04-09T15:23:06.257Z,2.80
2023-04-09T15:25:33.313Z,2.60
2023-04-09T15:28:00.467Z,3.17
2023-04-09T15:30:27.634Z,2.75
2023-04-09T15:32:54.654Z,2.60
2023-04-09T15:35:25.239Z,2.80
2023-04-09T15:37:52.469Z,2.50
2023-04-09T15:40:19.945Z,2.40
2023-04-09T15:42:46.994Z,2.70
2023-04-09T15:45:16.994Z,2.58
2023-04-09T15:47:46.050Z,2.70
2023-04-09T15:50:13.844Z,2.78
2023-04-09T15:52:40.795Z,2.50
2023-04-09T15:55:08.074Z,2.78
2023-04-09T15:57:35.013Z,2.83
2023-04-09T16:00:02.186Z,3.05
2023-04-09T16:02:31.629Z,2.25
2023-04-09T16:04:58.729Z,2.53
2023-04-09T16:07:25.833Z,2.35
2023-04-09T16:09:52.871Z,2.83
2023-04-09T16:12:19.783Z,2.47
2023-04-09T16:14:46.678Z,2.72
2023-04-09T16:17:13.648Z,2.78
2023-04-09T16:19:40.654Z,2.53
2023-04-09T16:22:07.544Z,2.65
2023-04-09T16:24:35.348Z,2.50
2023-04-09T16:27:02.343Z,2.50
2023-04-09T16:29:29.419Z,2.63
2023-04-09T16:31:57.566Z,2.50
2023-04-09T16:34:25.078Z,2.47
2023-04-09T16:36:52.038Z,2.58
2023-04-09T16:39:19.666Z,2.88
2023-04-09T16:41:49.266Z,2.95
2023-04-09T16:44:20.728Z,2.58
2023-04-09T16:46:55.934Z,2.72
2023-04-09T16:49:23.700Z,2.88
2023-04-09T16:51:54.579Z,2.85
2023-04-09T16:54:21.470Z,2.63
2023-04-09T16:56:48.903Z,2.85
2023-04-09T16:59:18.524Z,2.72
2023-04-09T17:01:45.720Z,2.90
2023-04-09T17:04:16.304Z,2.60
2023-04-09T17:06:43.545Z,2.53
2023-04-09T17:09:10.600Z,3.00
2023-04-09T17:11:38.153Z,3.13
2023-04-09T17:14:05.786Z,3.10
2023-04-09T17:16:33.303Z,2.70
2023-04-09T17:19:00.812Z,2.83
2023-04-09T17:21:27.892Z,3.03
2023-04-09T17:23:54.853Z,3.60
2023-04-09T17:26:24.751Z,3.10
2023-04-09T17:31:22.045Z,3.63
2023-04-09T17:33:49.343Z,3.67
2023-04-09T17:36:20.622Z,3.38
2023-04-09T17:38:50.457Z,2.97
2023-04-09T17:43:44.698Z,3.45
2023-04-09T17:46:12.377Z,3.13
2023-04-09T17:48:39.575Z,3.15
2023-04-09T17:51:07.198Z,3.22
2023-04-09T17:53:36.984Z,3.35
2023-04-09T17:56:04.284Z,2.80
2023-04-09T17:58:31.366Z,3.03
2023-04-09T18:00:59.590Z,2.97
2023-04-09T18:03:26.952Z,3.50
2023-04-09T18:05:55.506Z,3.35
2023-04-09T18:08:25.702Z,3.35
2023-04-09T18:11:10.985Z,2.90
2023-04-09T18:13:39.864Z,3.15
2023-04-09T18:16:11.698Z,3.03
2023-04-09T18:18:40.404Z,3.53
2023-04-09T18:21:07.936Z,3.08
2023-04-09T18:23:35.253Z,3.42
2023-04-09T18:26:02.398Z,3.00
2023-04-09T18:28:33.397Z,3.38
2023-04-09T18:31:00.838Z,3.20
2023-04-09T18:33:31.556Z,3.15
2023-04-09T18:36:02.299Z,3.08
2023-04-09T18:38:32.533Z,3.50
2023-04-09T18:41:01.257Z,3.35
2023-04-09T18:43:29.943Z,3.45
2023-04-09T18:45:57.305Z,3.28
2023-04-09T18:48:24.405Z,3.50
2023-04-09T18:50:51.348Z,3.22
2023-04-09T18:53:18.647Z,3.15
2023-04-09T18:55:46.494Z,2.95
2023-04-09T18:58:15.053Z,3.83
2023-04-09T19:00:43.450Z,3.42
2023-04-09T19:03:10.432Z,3.17
2023-04-09T19:05:37.757Z,3.22
2023-04-09T19:08:08.011Z,3.25
2023-04-09T19:10:36.061Z,3.00
2023-04-09T19:13:04.459Z,3.10
2023-04-09T19:15:31.472Z,3.88
2023-04-09T19:17:59.824Z,3.15
2023-04-09T19:20:27.481Z,3.10
2023-04-09T19:22:56.683Z,2.83
2023-04-09T19:25:24.124Z,3.40
2023-04-09T19:27:53.724Z,3.20
2023-04-09T19:30:21.393Z,2.92
2023-04-09T19:32:48.490Z,3.17
2023-04-09T19:35:15.591Z,3.25
2023-04-09T19:37:42.660Z,3.03
2023-04-09T19:40:10.742Z,3.15
2023-04-09T19:42:37.814Z,3.08
2023-04-09T19:45:05.029Z,3.20
2023-04-09T19:47:32.398Z,2.92
2023-04-09T19:50:02.509Z,3.00
2023-04-09T19:52:32.203Z,3.10
2023-04-09T19:55:02.110Z,2.75
2023-04-09T19:57:32.450Z,3.08
2023-04-09T19:59:59.468Z,2.80
2023-04-09T20:02:28.586Z,3.00
2023-04-09T20:04:56.821Z,2.97
2023-04-09T20:07:24.046Z,2.75
2023-04-09T20:09:51.565Z,2.97
2023-04-09T20:12:19.342Z,3.13
2023-04-09T20:14:47.325Z,3.13
2023-04-09T20:17:15.424Z,3.35
2023-04-09T20:19:42.367Z,2.97
2023-04-09T20:22:09.423Z,3.45
2023-04-09T20:24:39.931Z,3.22
2023-04-09T20:27:09.249Z,3.38
2023-04-09T20:29:40.906Z,3.53
2023-04-09T20:32:09.006Z,3.38
2023-04-09T20:34:39.239Z,3.78
2023-04-09T20:37:09.738Z,3.90
2023-04-09T20:39:43.026Z,3.70
2023-04-09T20:42:09.907Z,3.60
2023-04-09T20:44:38.458Z,3.78
2023-04-09T20:47:12.094Z,3.72
2023-04-09T20:49:39.246Z,3.70
2023-04-09T20:52:09.556Z,4.22
2023-04-09T20:54:38.955Z,3.60
2023-04-09T20:57:06.987Z,4.30
2023-04-09T20:59:34.081Z,4.15
2023-04-09T21:02:01.920Z,4.40
2023-04-09T21:04:30.344Z,4.20
2023-04-09T21:06:57.412Z,4.05
2023-04-09T21:09:25.216Z,3.83
2023-04-09T21:11:52.220Z,4.05
2023-04-09T21:14:23.503Z,4.25
2023-04-09T21:19:19.410Z,4.50
2023-04-09T21:21:46.883Z,4.45
2023-04-09T21:24:20.813Z,4.20
2023-04-09T21:26:54.509Z,5.50
2023-04-09T21:29:21.520Z,4.40
2023-04-09T21:31:49.356Z,4.68
2023-04-09T21:34:16.726Z,4.55
2023-04-09T21:36:45.490Z,4.90
2023-04-09T21:39:13.093Z,4.45
2023-04-09T21:41:42.265Z,4.85
2023-04-09T21:44:14.731Z,4.88
2023-04-09T21:46:43.284Z,4.90
2023-04-09T21:49:15.894Z,4.55
2023-04-09T21:54:12.723Z,4.93
2023-04-09T21:56:39.682Z,5.80
2023-04-09T21:59:06.989Z,5.75
2023-04-09T22:01:35.093Z,5.88
2023-04-09T22:04:02.478Z,5.70
2023-04-09T22:06:31.556Z,6.00
2023-04-09T22:08:58.737Z,5.70
2023-04-09T22:11:35.920Z,5.95
2023-04-09T22:14:03.259Z,6.15
2023-04-09T22:16:30.316Z,5.72
2023-04-09T22:19:02.094Z,5.32
2023-04-09T22:21:29.202Z,5.27
2023-04-09T22:23:57.889Z,5.90
2023-04-09T22:26:31.136Z,5.78
2023-04-09T22:29:01.781Z,5.45
2023-04-09T22:31:47.327Z,5.93
2023-04-09T22:34:22.530Z,6.00
2023-04-09T22:36:52.992Z,5.95
2023-04-09T22:39:20.292Z,5.72
2023-04-09T22:41:47.334Z,6.00
2023-04-09T22:44:14.324Z,5.65
2023-04-09T22:46:41.706Z,5.68
2023-04-09T22:49:09.130Z,5.40
2023-04-09T22:51:36.344Z,6.35
2023-04-09T22:54:03.860Z,5.65
2023-04-09T22:56:31.906Z,5.55
2023-04-09T22:59:04.964Z,5.63
2023-04-09T23:01:33.701Z,6.15
2023-04-09T23:04:01.617Z,5.50
2023-04-09T23:06:33.749Z,5.63
2023-04-09T23:09:09.908Z,6.05
2023-04-09T23:11:38.012Z,5.25
2023-04-09T23:14:13.952Z,5.85
2023-04-09T23:16:41.099Z,6.00
2023-04-09T23:19:08.375Z,5.50
2023-04-09T23:21:35.415Z,5.65
2023-04-09T23:24:03.770Z,5.90
2023-04-09T23:26:30.842Z,4.88
2023-04-09T23:28:57.903Z,5.10
2023-04-09T23:31:25.025Z,5.60
2023-04-09T23:33:52.418Z,5.90
2023-04-09T23:36:19.605Z,5.68
2023-04-09T23:38:47.470Z,5.45
2023-04-09T23:41:14.715Z,6.13
2023-04-09T23:43:41.709Z,6.05
2023-04-09T23:46:08.995Z,6.70
2023-04-09T23:48:39.334Z,6.28
2023-04-09T23:51:06.591Z,5.90
2023-04-09T23:53:33.536Z,6.53
2023-04-09T23:56:00.790Z,5.82
2023-04-09T23:58:27.867Z,5.43
